createdAt,value
2023-01-19T00:07:01.116Z,167769.14
2023-01-19T00:22:44.169Z,167768.95
2023-01-19T00:38:27.321Z,167768.95
2023-01-19T00:54:10.612Z,167768.88
2023-01-19T01:09:53.215Z,167768.72
2023-01-19T01:25:36.133Z,167768.59
2023-01-19T01:41:18.730Z,167768.46
2023-01-19T01:57:01.949Z,167768.2
2023-01-19T02:12:45.299Z,167768.03
2023-01-19T02:28:27.952Z,167767.95
2023-01-19T02:44:10.236Z,167767.9
2023-01-19T02:59:53.809Z,167767.86
2023-01-19T03:15:36.687Z,167767.82
2023-01-19T03:31:20.003Z,167767.8
2023-01-19T03:47:03.355Z,167767.72
2023-01-19T04:02:45.858Z,167767.72
2023-01-19T04:18:28.991Z,167767.64
2023-01-19T04:34:11.705Z,167767.53
2023-01-19T04:49:54.458Z,167767.34
2023-01-19T05:05:37.611Z,167767.22
2023-01-19T05:21:21.127Z,167767.1
2023-01-19T05:37:04.445Z,167766.99
2023-01-19T05:52:47.138Z,167766.88
2023-01-19T06:08:30.159Z,167766.8
2023-01-19T06:24:12.881Z,167766.89
2023-01-19T06:39:55.993Z,167766.91
2023-01-19T06:55:38.235Z,167767.18
2023-01-19T07:11:21.831Z,167767.01
2023-01-19T07:27:04.815Z,167766.99
2023-01-19T07:42:47.321Z,167767.02
2023-01-19T07:58:30.348Z,167767.14
2023-01-19T08:14:13.188Z,167767.51
2023-01-19T08:29:55.824Z,167768.12
2023-01-19T08:45:38.978Z,167768.63
2023-01-19T09:01:22.300Z,167769.51
2023-01-19T09:17:05.463Z,167770.8
2023-01-19T09:32:48.290Z,167771.84
2023-01-19T09:48:30.998Z,167772.06
2023-01-19T10:04:13.978Z,167771.82
2023-01-19T10:19:57.071Z,0.73
2023-01-19T10:35:39.860Z,1.38
2023-01-19T10:51:22.277Z,2.44
2023-01-19T11:07:05.598Z,2.51
2023-01-19T11:22:47.968Z,1.51
2023-01-19T11:38:30.411Z,1.01
2023-01-19T11:54:12.814Z,0.62
2023-01-19T11:55:00.289Z,0.73
2023-01-19T12:10:43.219Z,0.26
2023-01-19T12:26:26.692Z,0.19
2023-01-19T12:42:09.315Z,0.12
2023-01-19T12:57:51.976Z,0.35
2023-01-19T13:13:34.991Z,1.81
2023-01-19T13:29:17.388Z,1.91
2023-01-19T13:45:00.376Z,0.99
2023-01-19T14:00:43.071Z,0.73
2023-01-19T14:16:26.121Z,0.64
2023-01-19T14:32:08.447Z,0.35
2023-01-19T14:47:51.705Z,0.14
2023-01-19T15:03:34.163Z,167772.05
2023-01-19T15:19:16.963Z,167771.71
2023-01-19T15:34:59.440Z,167771.44
2023-01-19T15:50:42.502Z,167771.17
2023-01-19T16:06:25.734Z,167771.03
2023-01-19T16:22:08.388Z,167771.03
2023-01-19T16:37:51.290Z,167770.96
2023-01-19T16:53:34.218Z,167770.86
2023-01-19T17:09:17.095Z,167770.93
2023-01-19T17:24:59.568Z,167771.06
2023-01-19T17:40:42.084Z,167771.07
2023-01-19T17:56:24.706Z,167771.04
2023-01-19T18:12:07.864Z,167771.03
2023-01-19T18:27:50.858Z,167770.95
2023-01-19T18:43:33.846Z,167771.05
2023-01-19T18:59:16.396Z,167771.17
2023-01-19T19:14:59.007Z,167771.3
2023-01-19T19:30:42.001Z,167771.42
2023-01-19T19:46:24.671Z,167771.53
2023-01-19T20:02:07.853Z,167771.65
2023-01-19T20:17:50.984Z,167771.78
2023-01-19T20:33:34.278Z,167771.93
2023-01-19T20:49:17.483Z,167772.06
2023-01-19T21:05:00.516Z,167772.09
2023-01-19T21:20:43.420Z,167772.11
2023-01-19T21:36:26.008Z,0.08
2023-01-19T21:52:08.517Z,0.19
2023-01-19T22:07:51.873Z,0.27
2023-01-19T22:23:34.882Z,0.31
2023-01-19T22:39:18.138Z,0.33
2023-01-19T22:55:00.509Z,0.43
2023-01-19T23:10:43.087Z,0.51
2023-01-19T23:26:25.803Z,0.58
2023-01-19T23:42:08.996Z,0.63
2023-01-19T23:57:51.527Z,0.65
